sensor_id;sensor_type;location;lat;lon;timestamp;temperature;humidity
83841;DHT22;73868;52.172;10.668;2023-12-04T00:01:18;-3273.80;94.70
83841;DHT22;73868;52.172;10.668;2023-12-04T00:03:45;-3273.80;94.80
83841;DHT22;73868;52.172;10.668;2023-12-04T00:06:11;-3273.80;94.20
83841;DHT22;73868;52.172;10.668;2023-12-04T00:08:38;-3273.80;94.00
83841;DHT22;73868;52.172;10.668;2023-12-04T00:11:05;-3273.70;94.00
83841;DHT22;73868;52.172;10.668;2023-12-04T00:13:31;-3273.70;93.90
83841;DHT22;73868;52.172;10.668;2023-12-04T00:15:57;-3273.60;94.10
83841;DHT22;73868;52.172;10.668;2023-12-04T00:18:22;-3273.60;94.50
83841;DHT22;73868;52.172;10.668;2023-12-04T00:20:48;-3273.60;94.60
83841;DHT22;73868;52.172;10.668;2023-12-04T00:23:14;-3273.60;94.80
83841;DHT22;73868;52.172;10.668;2023-12-04T00:25:40;-3273.70;95.20
83841;DHT22;73868;52.172;10.668;2023-12-04T00:28:05;-3273.70;95.40
83841;DHT22;73868;52.172;10.668;2023-12-04T00:30:31;-3273.70;94.90
83841;DHT22;73868;52.172;10.668;2023-12-04T00:32:57;-3273.70;94.80
83841;DHT22;73868;52.172;10.668;2023-12-04T00:35:23;-3273.70;94.70
83841;DHT22;73868;52.172;10.668;2023-12-04T00:37:48;-3273.80;94.50
83841;DHT22;73868;52.172;10.668;2023-12-04T00:40:14;-3273.80;94.30
83841;DHT22;73868;52.172;10.668;2023-12-04T00:42:40;-3273.80;93.90
83841;DHT22;73868;52.172;10.668;2023-12-04T00:45:06;-3273.60;93.60
83841;DHT22;73868;52.172;10.668;2023-12-04T00:47:33;-3273.60;93.70
83841;DHT22;73868;52.172;10.668;2023-12-04T00:49:58;-3273.60;94.10
83841;DHT22;73868;52.172;10.668;2023-12-04T00:52:24;-3273.50;94.20
83841;DHT22;73868;52.172;10.668;2023-12-04T00:54:50;-3273.50;94.20
83841;DHT22;73868;52.172;10.668;2023-12-04T00:57:15;-3273.50;94.30
83841;DHT22;73868;52.172;10.668;2023-12-04T00:59:41;-3273.50;94.60
83841;DHT22;73868;52.172;10.668;2023-12-04T01:02:07;-3273.70;95.50
83841;DHT22;73868;52.172;10.668;2023-12-04T01:04:33;-3273.70;94.10
83841;DHT22;73868;52.172;10.668;2023-12-04T01:06:58;-3273.70;94.00
83841;DHT22;73868;52.172;10.668;2023-12-04T01:09:24;-3273.60;93.70
83841;DHT22;73868;52.172;10.668;2023-12-04T01:11:53;-3273.70;94.50
83841;DHT22;73868;52.172;10.668;2023-12-04T01:14:20;-3273.70;94.20
83841;DHT22;73868;52.172;10.668;2023-12-04T01:16:46;-3273.70;94.10
83841;DHT22;73868;52.172;10.668;2023-12-04T01:19:11;-3273.70;93.80
83841;DHT22;73868;52.172;10.668;2023-12-04T01:21:37;-3273.60;93.60
83841;DHT22;73868;52.172;10.668;2023-12-04T01:24:03;-3273.60;93.90
83841;DHT22;73868;52.172;10.668;2023-12-04T01:26:28;-3273.50;94.40
83841;DHT22;73868;52.172;10.668;2023-12-04T01:28:54;-3273.50;94.70
83841;DHT22;73868;52.172;10.668;2023-12-04T01:31:20;-3273.70;95.20
83841;DHT22;73868;52.172;10.668;2023-12-04T01:33:46;-3273.90;95.90
83841;DHT22;73868;52.172;10.668;2023-12-04T01:36:11;-3274.40;95.70
83841;DHT22;73868;52.172;10.668;2023-12-04T01:38:37;-3274.50;92.90
83841;DHT22;73868;52.172;10.668;2023-12-04T01:41:03;-3274.50;91.80
83841;DHT22;73868;52.172;10.668;2023-12-04T01:43:29;-3274.40;92.80
83841;DHT22;73868;52.172;10.668;2023-12-04T01:45:56;-3274.30;92.80
83841;DHT22;73868;52.172;10.668;2023-12-04T01:48:22;-3274.20;92.60
83841;DHT22;73868;52.172;10.668;2023-12-04T01:50:48;-3274.20;92.80
83841;DHT22;73868;52.172;10.668;2023-12-04T01:53:14;-3274.20;92.60
83841;DHT22;73868;52.172;10.668;2023-12-04T01:55:41;-3274.00;92.80
83841;DHT22;73868;52.172;10.668;2023-12-04T01:58:06;-3274.00;93.70
83841;DHT22;73868;52.172;10.668;2023-12-04T02:00:33;-3274.00;93.50
83841;DHT22;73868;52.172;10.668;2023-12-04T02:02:59;-3274.00;93.00
83841;DHT22;73868;52.172;10.668;2023-12-04T02:05:26;-3274.00;93.10
83841;DHT22;73868;52.172;10.668;2023-12-04T02:07:52;-3274.00;93.30
83841;DHT22;73868;52.172;10.668;2023-12-04T02:10:18;-3274.00;93.60
83841;DHT22;73868;52.172;10.668;2023-12-04T02:12:44;-3274.00;93.80
83841;DHT22;73868;52.172;10.668;2023-12-04T02:15:10;-3274.10;94.10
83841;DHT22;73868;52.172;10.668;2023-12-04T02:17:36;-3274.10;94.30
83841;DHT22;73868;52.172;10.668;2023-12-04T02:20:02;-3274.00;94.00
83841;DHT22;73868;52.172;10.668;2023-12-04T02:22:29;-3274.10;94.00
83841;DHT22;73868;52.172;10.668;2023-12-04T02:24:54;-3274.20;93.90
83841;DHT22;73868;52.172;10.668;2023-12-04T02:27:28;-3274.20;93.80
83841;DHT22;73868;52.172;10.668;2023-12-04T02:29:59;-3274.40;94.40
83841;DHT22;73868;52.172;10.668;2023-12-04T02:32:29;-3274.60;94.50
83841;DHT22;73868;52.172;10.668;2023-12-04T02:34:56;-3274.60;93.90
83841;DHT22;73868;52.172;10.668;2023-12-04T02:37:23;-3274.70;93.90
83841;DHT22;73868;52.172;10.668;2023-12-04T02:39:50;-3274.70;94.30
83841;DHT22;73868;52.172;10.668;2023-12-04T02:42:18;-3274.80;94.10
83841;DHT22;73868;52.172;10.668;2023-12-04T02:44:44;-3274.70;93.40
83841;DHT22;73868;52.172;10.668;2023-12-04T02:47:11;-3274.80;93.20
83841;DHT22;73868;52.172;10.668;2023-12-04T02:49:36;-3274.70;92.30
83841;DHT22;73868;52.172;10.668;2023-12-04T02:52:02;-3274.60;92.50
83841;DHT22;73868;52.172;10.668;2023-12-04T02:54:28;-3274.60;92.40
83841;DHT22;73868;52.172;10.668;2023-12-04T02:56:54;-3274.60;92.60
83841;DHT22;73868;52.172;10.668;2023-12-04T02:59:19;-3274.70;93.00
83841;DHT22;73868;52.172;10.668;2023-12-04T03:01:45;-3274.70;93.20
83841;DHT22;73868;52.172;10.668;2023-12-04T03:04:11;-3274.70;92.90
83841;DHT22;73868;52.172;10.668;2023-12-04T03:06:36;-3274.80;92.70
83841;DHT22;73868;52.172;10.668;2023-12-04T03:09:03;-3274.80;92.90
83841;DHT22;73868;52.172;10.668;2023-12-04T03:11:29;-3274.90;93.00
83841;DHT22;73868;52.172;10.668;2023-12-04T03:13:55;-3275.00;93.10
83841;DHT22;73868;52.172;10.668;2023-12-04T03:16:20;-3275.20;93.00
83841;DHT22;73868;52.172;10.668;2023-12-04T03:18:46;-3275.20;91.80
83841;DHT22;73868;52.172;10.668;2023-12-04T03:21:12;-3275.20;90.60
83841;DHT22;73868;52.172;10.668;2023-12-04T03:23:37;-3275.20;90.10
83841;DHT22;73868;52.172;10.668;2023-12-04T03:26:03;-3275.20;90.50
83841;DHT22;73868;52.172;10.668;2023-12-04T03:28:29;-3275.30;90.30
83841;DHT22;73868;52.172;10.668;2023-12-04T03:30:55;-3275.30;90.00
83841;DHT22;73868;52.172;10.668;2023-12-04T03:33:20;-3275.20;90.30
83841;DHT22;73868;52.172;10.668;2023-12-04T03:35:46;-3275.20;90.10
83841;DHT22;73868;52.172;10.668;2023-12-04T03:38:12;-3275.20;90.40
83841;DHT22;73868;52.172;10.668;2023-12-04T03:40:38;-3275.30;90.80
83841;DHT22;73868;52.172;10.668;2023-12-04T03:43:03;-3275.20;90.60
83841;DHT22;73868;52.172;10.668;2023-12-04T03:45:29;-3275.40;90.80
83841;DHT22;73868;52.172;10.668;2023-12-04T03:47:55;-3275.30;90.00
83841;DHT22;73868;52.172;10.668;2023-12-04T03:50:20;-3275.30;90.30
83841;DHT22;73868;52.172;10.668;2023-12-04T03:52:46;-3275.30;90.50
83841;DHT22;73868;52.172;10.668;2023-12-04T03:55:11;-3275.30;90.60
83841;DHT22;73868;52.172;10.668;2023-12-04T03:57:37;-3275.40;90.50
83841;DHT22;73868;52.172;10.668;2023-12-04T04:00:03;-3275.40;90.50
83841;DHT22;73868;52.172;10.668;2023-12-04T04:02:29;-3275.50;90.50
83841;DHT22;73868;52.172;10.668;2023-12-04T04:04:55;-3275.50;90.40
83841;DHT22;73868;52.172;10.668;2023-12-04T04:07:20;-3275.50;90.20
83841;DHT22;73868;52.172;10.668;2023-12-04T04:09:46;-3275.50;90.10
83841;DHT22;73868;52.172;10.668;2023-12-04T04:12:12;-3275.50;90.20
83841;DHT22;73868;52.172;10.668;2023-12-04T04:14:37;-3275.50;90.00
83841;DHT22;73868;52.172;10.668;2023-12-04T04:17:03;-3275.60;89.70
83841;DHT22;73868;52.172;10.668;2023-12-04T04:19:29;-3275.60;89.40
83841;DHT22;73868;52.172;10.668;2023-12-04T04:21:55;-3275.60;89.30
83841;DHT22;73868;52.172;10.668;2023-12-04T04:24:20;-3275.60;89.40
83841;DHT22;73868;52.172;10.668;2023-12-04T04:26:46;-3275.70;88.90
83841;DHT22;73868;52.172;10.668;2023-12-04T04:29:11;-3275.70;89.10
83841;DHT22;73868;52.172;10.668;2023-12-04T04:31:37;-3275.90;88.50
83841;DHT22;73868;52.172;10.668;2023-12-04T04:34:03;-3275.90;88.20
83841;DHT22;73868;52.172;10.668;2023-12-04T04:36:28;-3275.90;87.80
83841;DHT22;73868;52.172;10.668;2023-12-04T04:38:54;-3275.80;87.60
83841;DHT22;73868;52.172;10.668;2023-12-04T04:41:20;-3275.80;87.80
83841;DHT22;73868;52.172;10.668;2023-12-04T04:43:45;-3275.80;87.80
83841;DHT22;73868;52.172;10.668;2023-12-04T04:46:11;-3275.80;88.20
83841;DHT22;73868;52.172;10.668;2023-12-04T04:48:37;-3275.90;87.70
83841;DHT22;73868;52.172;10.668;2023-12-04T04:51:03;-3275.90;87.80
83841;DHT22;73868;52.172;10.668;2023-12-04T04:53:29;-3275.80;87.70
83841;DHT22;73868;52.172;10.668;2023-12-04T04:55:54;-3275.70;88.10
83841;DHT22;73868;52.172;10.668;2023-12-04T04:58:20;-3275.80;88.10
83841;DHT22;73868;52.172;10.668;2023-12-04T05:00:46;-3275.80;88.20
83841;DHT22;73868;52.172;10.668;2023-12-04T05:03:12;-3275.80;88.20
83841;DHT22;73868;52.172;10.668;2023-12-04T05:05:38;-3275.80;87.40
83841;DHT22;73868;52.172;10.668;2023-12-04T05:08:03;-3275.80;87.60
83841;DHT22;73868;52.172;10.668;2023-12-04T05:10:29;-3275.70;87.40
83841;DHT22;73868;52.172;10.668;2023-12-04T05:12:55;-3275.90;87.80
83841;DHT22;73868;52.172;10.668;2023-12-04T05:15:22;-3275.90;87.40
83841;DHT22;73868;52.172;10.668;2023-12-04T05:17:48;-3276.00;86.80
83841;DHT22;73868;52.172;10.668;2023-12-04T05:20:13;-3276.00;87.10
83841;DHT22;73868;52.172;10.668;2023-12-04T05:22:40;-3276.00;86.40
83841;DHT22;73868;52.172;10.668;2023-12-04T05:25:06;-3276.10;86.40
83841;DHT22;73868;52.172;10.668;2023-12-04T05:27:32;-3276.00;86.60
83841;DHT22;73868;52.172;10.668;2023-12-04T05:29:57;-3276.10;86.30
83841;DHT22;73868;52.172;10.668;2023-12-04T05:32:23;-3276.10;86.10
83841;DHT22;73868;52.172;10.668;2023-12-04T05:34:49;-3276.10;85.80
83841;DHT22;73868;52.172;10.668;2023-12-04T05:37:14;-3276.00;86.50
83841;DHT22;73868;52.172;10.668;2023-12-04T05:39:41;-3276.10;86.00
83841;DHT22;73868;52.172;10.668;2023-12-04T05:42:07;-3276.00;86.40
83841;DHT22;73868;52.172;10.668;2023-12-04T05:44:33;-3275.90;85.80
83841;DHT22;73868;52.172;10.668;2023-12-04T05:46:59;-3275.90;86.80
83841;DHT22;73868;52.172;10.668;2023-12-04T05:49:24;-3275.90;86.40
83841;DHT22;73868;52.172;10.668;2023-12-04T05:51:50;-3275.90;86.60
83841;DHT22;73868;52.172;10.668;2023-12-04T05:54:15;-3276.00;86.10
83841;DHT22;73868;52.172;10.668;2023-12-04T05:56:41;-3275.90;86.20
83841;DHT22;73868;52.172;10.668;2023-12-04T05:59:08;-3275.90;86.30
83841;DHT22;73868;52.172;10.668;2023-12-04T06:01:33;-3275.90;86.40
83841;DHT22;73868;52.172;10.668;2023-12-04T06:03:59;-3275.80;86.30
83841;DHT22;73868;52.172;10.668;2023-12-04T06:06:24;-3276.00;86.50
83841;DHT22;73868;52.172;10.668;2023-12-04T06:08:50;-3276.00;85.80
83841;DHT22;73868;52.172;10.668;2023-12-04T06:11:16;-3276.00;86.00
83841;DHT22;73868;52.172;10.668;2023-12-04T06:13:41;-3276.00;85.80
83841;DHT22;73868;52.172;10.668;2023-12-04T06:16:07;-3276.00;85.70
83841;DHT22;73868;52.172;10.668;2023-12-04T06:18:33;-3276.10;86.00
83841;DHT22;73868;52.172;10.668;2023-12-04T06:20:59;-3276.00;86.00
83841;DHT22;73868;52.172;10.668;2023-12-04T06:23:25;-3276.00;85.90
83841;DHT22;73868;52.172;10.668;2023-12-04T06:25:51;-3276.10;86.50
83841;DHT22;73868;52.172;10.668;2023-12-04T06:28:17;-3276.00;86.20
83841;DHT22;73868;52.172;10.668;2023-12-04T06:30:43;-3276.00;86.10
83841;DHT22;73868;52.172;10.668;2023-12-04T06:33:09;-3276.00;86.40
83841;DHT22;73868;52.172;10.668;2023-12-04T06:35:35;-3276.00;86.40
83841;DHT22;73868;52.172;10.668;2023-12-04T06:38:06;-3276.10;86.80
83841;DHT22;73868;52.172;10.668;2023-12-04T06:40:32;-3276.10;86.50
83841;DHT22;73868;52.172;10.668;2023-12-04T06:42:58;-3276.10;86.50
83841;DHT22;73868;52.172;10.668;2023-12-04T06:45:24;-3276.10;86.30
83841;DHT22;73868;52.172;10.668;2023-12-04T06:47:50;-3276.00;86.50
83841;DHT22;73868;52.172;10.668;2023-12-04T06:50:16;-3276.10;86.10
83841;DHT22;73868;52.172;10.668;2023-12-04T06:52:42;-3276.10;86.10
83841;DHT22;73868;52.172;10.668;2023-12-04T06:55:08;-3276.00;86.00
83841;DHT22;73868;52.172;10.668;2023-12-04T06:57:34;-3276.00;86.10
83841;DHT22;73868;52.172;10.668;2023-12-04T07:00:00;-3276.00;85.90
83841;DHT22;73868;52.172;10.668;2023-12-04T07:02:25;-3276.10;85.90
83841;DHT22;73868;52.172;10.668;2023-12-04T07:04:51;-3276.10;85.70
83841;DHT22;73868;52.172;10.668;2023-12-04T07:07:17;-3276.00;86.10
83841;DHT22;73868;52.172;10.668;2023-12-04T07:09:42;-3276.00;85.90
83841;DHT22;73868;52.172;10.668;2023-12-04T07:12:08;-3276.00;86.00
83841;DHT22;73868;52.172;10.668;2023-12-04T07:14:34;-3276.00;86.50
83841;DHT22;73868;52.172;10.668;2023-12-04T07:16:59;-3276.10;86.20
83841;DHT22;73868;52.172;10.668;2023-12-04T07:19:25;-3276.00;86.20
83841;DHT22;73868;52.172;10.668;2023-12-04T07:21:52;-3276.00;86.50
83841;DHT22;73868;52.172;10.668;2023-12-04T07:24:18;-3276.00;86.80
83841;DHT22;73868;52.172;10.668;2023-12-04T07:26:43;-3276.00;86.90
83841;DHT22;73868;52.172;10.668;2023-12-04T07:29:09;-3276.00;86.80
83841;DHT22;73868;52.172;10.668;2023-12-04T07:31:35;-3275.90;87.10
83841;DHT22;73868;52.172;10.668;2023-12-04T07:34:00;-3276.00;86.70
83841;DHT22;73868;52.172;10.668;2023-12-04T07:36:27;-3276.00;86.60
83841;DHT22;73868;52.172;10.668;2023-12-04T07:38:53;-3276.00;87.20
83841;DHT22;73868;52.172;10.668;2023-12-04T07:41:19;-3276.10;86.60
83841;DHT22;73868;52.172;10.668;2023-12-04T07:43:45;-3276.20;86.90
83841;DHT22;73868;52.172;10.668;2023-12-04T07:46:11;-3276.10;86.30
83841;DHT22;73868;52.172;10.668;2023-12-04T07:48:37;-3276.20;86.50
83841;DHT22;73868;52.172;10.668;2023-12-04T07:51:03;-3276.20;86.40
83841;DHT22;73868;52.172;10.668;2023-12-04T07:53:28;-3276.20;86.00
83841;DHT22;73868;52.172;10.668;2023-12-04T07:55:54;-3276.30;86.00
83841;DHT22;73868;52.172;10.668;2023-12-04T07:58:20;-3276.20;86.30
83841;DHT22;73868;52.172;10.668;2023-12-04T08:00:45;-3276.30;85.90
83841;DHT22;73868;52.172;10.668;2023-12-04T08:03:11;-3276.20;86.10
83841;DHT22;73868;52.172;10.668;2023-12-04T08:05:36;-3276.30;85.90
83841;DHT22;73868;52.172;10.668;2023-12-04T08:08:03;-3276.30;86.00
83841;DHT22;73868;52.172;10.668;2023-12-04T08:10:28;-3276.40;86.10
83841;DHT22;73868;52.172;10.668;2023-12-04T08:12:54;-3276.50;85.80
83841;DHT22;73868;52.172;10.668;2023-12-04T08:15:19;-3276.40;85.60
83841;DHT22;73868;52.172;10.668;2023-12-04T08:17:45;-3276.20;85.50
83841;DHT22;73868;52.172;10.668;2023-12-04T08:20:11;-3276.40;85.50
83841;DHT22;73868;52.172;10.668;2023-12-04T08:22:40;-3276.40;85.30
83841;DHT22;73868;52.172;10.668;2023-12-04T08:25:07;-3276.40;85.30
83841;DHT22;73868;52.172;10.668;2023-12-04T08:27:33;-3276.40;85.20
83841;DHT22;73868;52.172;10.668;2023-12-04T08:29:59;-3276.50;85.10
83841;DHT22;73868;52.172;10.668;2023-12-04T08:32:24;-3276.50;85.30
83841;DHT22;73868;52.172;10.668;2023-12-04T08:34:52;-3276.50;85.30
83841;DHT22;73868;52.172;10.668;2023-12-04T08:37:18;-3276.60;85.10
83841;DHT22;73868;52.172;10.668;2023-12-04T08:39:44;-3276.60;85.10
83841;DHT22;73868;52.172;10.668;2023-12-04T08:42:11;-3276.50;84.90
83841;DHT22;73868;52.172;10.668;2023-12-04T08:44:36;-3276.70;85.20
83841;DHT22;73868;52.172;10.668;2023-12-04T08:47:02;-3276.70;85.20
83841;DHT22;73868;52.172;10.668;2023-12-04T08:49:28;0.10;85.30
83841;DHT22;73868;52.172;10.668;2023-12-04T08:51:54;0.10;84.80
83841;DHT22;73868;52.172;10.668;2023-12-04T08:54:19;0.10;84.70
83841;DHT22;73868;52.172;10.668;2023-12-04T08:56:46;0.10;84.60
83841;DHT22;73868;52.172;10.668;2023-12-04T08:59:12;0.10;85.10
83841;DHT22;73868;52.172;10.668;2023-12-04T09:01:38;0.10;85.50
83841;DHT22;73868;52.172;10.668;2023-12-04T09:04:04;0.10;84.80
83841;DHT22;73868;52.172;10.668;2023-12-04T09:06:30;0.10;85.60
83841;DHT22;73868;52.172;10.668;2023-12-04T09:08:55;0.20;85.10
83841;DHT22;73868;52.172;10.668;2023-12-04T09:11:21;0.30;84.40
83841;DHT22;73868;52.172;10.668;2023-12-04T09:13:47;0.40;84.30
83841;DHT22;73868;52.172;10.668;2023-12-04T09:16:12;0.30;83.20
83841;DHT22;73868;52.172;10.668;2023-12-04T09:18:39;0.50;83.70
83841;DHT22;73868;52.172;10.668;2023-12-04T09:21:05;0.40;83.60
83841;DHT22;73868;52.172;10.668;2023-12-04T09:23:31;0.50;83.20
83841;DHT22;73868;52.172;10.668;2023-12-04T09:25:57;0.40;83.30
83841;DHT22;73868;52.172;10.668;2023-12-04T09:28:22;0.40;82.80
83841;DHT22;73868;52.172;10.668;2023-12-04T09:30:49;0.50;82.30
83841;DHT22;73868;52.172;10.668;2023-12-04T09:33:15;0.50;82.40
83841;DHT22;73868;52.172;10.668;2023-12-04T09:35:41;0.60;82.40
83841;DHT22;73868;52.172;10.668;2023-12-04T09:38:07;0.50;82.60
83841;DHT22;73868;52.172;10.668;2023-12-04T09:40:33;0.50;82.10
83841;DHT22;73868;52.172;10.668;2023-12-04T09:42:58;0.50;82.50
83841;DHT22;73868;52.172;10.668;2023-12-04T09:45:25;0.70;82.00
83841;DHT22;73868;52.172;10.668;2023-12-04T09:47:50;0.90;81.70
83841;DHT22;73868;52.172;10.668;2023-12-04T09:50:17;0.90;81.40
83841;DHT22;73868;52.172;10.668;2023-12-04T09:52:48;0.90;82.50
83841;DHT22;73868;52.172;10.668;2023-12-04T09:55:15;1.20;81.30
83841;DHT22;73868;52.172;10.668;2023-12-04T09:57:41;1.40;82.10
83841;DHT22;73868;52.172;10.668;2023-12-04T10:00:08;1.60;81.40
83841;DHT22;73868;52.172;10.668;2023-12-04T10:02:35;1.50;79.90
83841;DHT22;73868;52.172;10.668;2023-12-04T10:05:02;1.20;80.70
83841;DHT22;73868;52.172;10.668;2023-12-04T10:07:30;1.20;81.60
83841;DHT22;73868;52.172;10.668;2023-12-04T10:09:55;1.40;80.80
83841;DHT22;73868;52.172;10.668;2023-12-04T10:12:21;1.40;80.00
83841;DHT22;73868;52.172;10.668;2023-12-04T10:15:09;1.30;80.90
83841;DHT22;73868;52.172;10.668;2023-12-04T10:17:40;1.20;80.80
83841;DHT22;73868;52.172;10.668;2023-12-04T10:22:39;1.40;80.70
83841;DHT22;73868;52.172;10.668;2023-12-04T10:25:15;1.30;80.40
83841;DHT22;73868;52.172;10.668;2023-12-04T10:27:42;1.20;80.50
83841;DHT22;73868;52.172;10.668;2023-12-04T10:30:09;1.10;80.80
83841;DHT22;73868;52.172;10.668;2023-12-04T10:32:41;1.20;81.00
83841;DHT22;73868;52.172;10.668;2023-12-04T10:35:07;1.10;81.20
83841;DHT22;73868;52.172;10.668;2023-12-04T10:37:38;1.30;80.40
83841;DHT22;73868;52.172;10.668;2023-12-04T10:40:03;1.20;80.30
83841;DHT22;73868;52.172;10.668;2023-12-04T10:42:33;1.30;80.50
83841;DHT22;73868;52.172;10.668;2023-12-04T10:45:00;1.20;80.80
83841;DHT22;73868;52.172;10.668;2023-12-04T10:47:28;1.30;79.60
83841;DHT22;73868;52.172;10.668;2023-12-04T10:49:54;1.30;80.10
83841;DHT22;73868;52.172;10.668;2023-12-04T10:52:20;1.40;79.80
83841;DHT22;73868;52.172;10.668;2023-12-04T10:54:50;1.30;79.70
83841;DHT22;73868;52.172;10.668;2023-12-04T10:57:27;1.20;79.60
83841;DHT22;73868;52.172;10.668;2023-12-04T10:59:58;1.20;80.10
83841;DHT22;73868;52.172;10.668;2023-12-04T11:02:29;1.20;80.30
83841;DHT22;73868;52.172;10.668;2023-12-04T11:05:18;1.20;80.40
83841;DHT22;73868;52.172;10.668;2023-12-04T11:07:53;1.10;80.40
83841;DHT22;73868;52.172;10.668;2023-12-04T11:10:22;1.00;81.10
83841;DHT22;73868;52.172;10.668;2023-12-04T11:13:12;1.20;81.30
83841;DHT22;73868;52.172;10.668;2023-12-04T11:15:40;1.30;80.80
83841;DHT22;73868;52.172;10.668;2023-12-04T11:18:07;1.30;79.80
83841;DHT22;73868;52.172;10.668;2023-12-04T11:20:39;1.30;79.80
83841;DHT22;73868;52.172;10.668;2023-12-04T11:23:06;1.30;80.40
83841;DHT22;73868;52.172;10.668;2023-12-04T11:25:33;1.50;79.50
83841;DHT22;73868;52.172;10.668;2023-12-04T11:28:01;1.30;79.60
83841;DHT22;73868;52.172;10.668;2023-12-04T11:30:28;1.30;79.60
83841;DHT22;73868;52.172;10.668;2023-12-04T11:32:54;1.40;79.30
83841;DHT22;73868;52.172;10.668;2023-12-04T11:35:25;1.30;79.60
83841;DHT22;73868;52.172;10.668;2023-12-04T11:37:52;1.40;79.60
83841;DHT22;73868;52.172;10.668;2023-12-04T11:40:18;1.50;78.70
83841;DHT22;73868;52.172;10.668;2023-12-04T11:42:44;1.40;78.80
83841;DHT22;73868;52.172;10.668;2023-12-04T11:45:10;1.30;79.40
83841;DHT22;73868;52.172;10.668;2023-12-04T11:47:55;1.30;79.10
83841;DHT22;73868;52.172;10.668;2023-12-04T11:50:23;1.20;79.50
83841;DHT22;73868;52.172;10.668;2023-12-04T11:52:49;1.30;80.10
83841;DHT22;73868;52.172;10.668;2023-12-04T11:55:21;1.20;79.50
83841;DHT22;73868;52.172;10.668;2023-12-04T11:57:49;1.20;80.10
83841;DHT22;73868;52.172;10.668;2023-12-04T12:00:23;1.20;79.10
83841;DHT22;73868;52.172;10.668;2023-12-04T12:05:19;1.10;79.00
83841;DHT22;73868;52.172;10.668;2023-12-04T12:07:45;1.00;79.40
83841;DHT22;73868;52.172;10.668;2023-12-04T12:10:12;1.10;79.60
83841;DHT22;73868;52.172;10.668;2023-12-04T12:12:39;1.10;79.50
83841;DHT22;73868;52.172;10.668;2023-12-04T12:15:11;1.10;79.50
83841;DHT22;73868;52.172;10.668;2023-12-04T12:17:41;1.10;79.70
83841;DHT22;73868;52.172;10.668;2023-12-04T12:20:07;0.90;80.00
83841;DHT22;73868;52.172;10.668;2023-12-04T12:22:34;0.90;80.40
83841;DHT22;73868;52.172;10.668;2023-12-04T12:25:00;1.00;80.60
83841;DHT22;73868;52.172;10.668;2023-12-04T12:27:26;0.70;80.50
83841;DHT22;73868;52.172;10.668;2023-12-04T12:29:51;0.90;80.90
83841;DHT22;73868;52.172;10.668;2023-12-04T12:32:17;0.90;80.10
83841;DHT22;73868;52.172;10.668;2023-12-04T12:34:42;0.90;80.30
83841;DHT22;73868;52.172;10.668;2023-12-04T12:37:09;0.90;80.30
83841;DHT22;73868;52.172;10.668;2023-12-04T12:39:34;0.90;80.70
83841;DHT22;73868;52.172;10.668;2023-12-04T12:42:01;1.00;80.30
83841;DHT22;73868;52.172;10.668;2023-12-04T12:44:39;0.90;80.10
83841;DHT22;73868;52.172;10.668;2023-12-04T12:47:08;0.80;80.20
83841;DHT22;73868;52.172;10.668;2023-12-04T12:49:34;0.70;80.80
83841;DHT22;73868;52.172;10.668;2023-12-04T12:52:05;0.70;81.00
83841;DHT22;73868;52.172;10.668;2023-12-04T12:54:31;0.60;81.20
83841;DHT22;73868;52.172;10.668;2023-12-04T12:56:59;0.60;81.60
83841;DHT22;73868;52.172;10.668;2023-12-04T12:59:27;0.60;81.50
83841;DHT22;73868;52.172;10.668;2023-12-04T13:01:52;0.60;81.40
83841;DHT22;73868;52.172;10.668;2023-12-04T13:04:18;0.60;81.40
83841;DHT22;73868;52.172;10.668;2023-12-04T13:06:44;0.50;81.60
83841;DHT22;73868;52.172;10.668;2023-12-04T13:09:11;0.60;81.50
83841;DHT22;73868;52.172;10.668;2023-12-04T13:11:44;0.40;81.60
83841;DHT22;73868;52.172;10.668;2023-12-04T13:14:10;0.40;81.70
83841;DHT22;73868;52.172;10.668;2023-12-04T13:16:35;0.40;81.70
83841;DHT22;73868;52.172;10.668;2023-12-04T13:19:01;0.50;81.50
83841;DHT22;73868;52.172;10.668;2023-12-04T13:21:27;0.40;81.10
83841;DHT22;73868;52.172;10.668;2023-12-04T13:23:54;0.40;81.00
83841;DHT22;73868;52.172;10.668;2023-12-04T13:26:19;0.50;81.10
83841;DHT22;73868;52.172;10.668;2023-12-04T13:28:45;0.60;81.00
83841;DHT22;73868;52.172;10.668;2023-12-04T13:31:11;0.60;81.20
83841;DHT22;73868;52.172;10.668;2023-12-04T13:33:36;0.50;81.60
83841;DHT22;73868;52.172;10.668;2023-12-04T13:36:02;0.50;81.30
83841;DHT22;73868;52.172;10.668;2023-12-04T13:38:29;0.50;81.10
83841;DHT22;73868;52.172;10.668;2023-12-04T13:40:55;0.40;81.20
83841;DHT22;73868;52.172;10.668;2023-12-04T13:43:44;0.50;81.10
83841;DHT22;73868;52.172;10.668;2023-12-04T13:46:16;0.30;81.40
83841;DHT22;73868;52.172;10.668;2023-12-04T13:48:41;0.40;81.90
83841;DHT22;73868;52.172;10.668;2023-12-04T13:51:11;0.30;81.70
83841;DHT22;73868;52.172;10.668;2023-12-04T13:53:37;0.30;81.30
83841;DHT22;73868;52.172;10.668;2023-12-04T13:56:16;0.20;81.60
83841;DHT22;73868;52.172;10.668;2023-12-04T13:58:41;0.20;81.90
83841;DHT22;73868;52.172;10.668;2023-12-04T14:01:11;0.10;81.70
83841;DHT22;73868;52.172;10.668;2023-12-04T14:03:45;0.20;82.30
83841;DHT22;73868;52.172;10.668;2023-12-04T14:06:11;0.10;82.50
83841;DHT22;73868;52.172;10.668;2023-12-04T14:08:37;0.10;82.60
83841;DHT22;73868;52.172;10.668;2023-12-04T14:11:03;0.00;83.00
83841;DHT22;73868;52.172;10.668;2023-12-04T14:13:31;0.00;83.30
83841;DHT22;73868;52.172;10.668;2023-12-04T14:15:57;0.00;83.00
83841;DHT22;73868;52.172;10.668;2023-12-04T14:18:23;0.00;82.80
83841;DHT22;73868;52.172;10.668;2023-12-04T14:20:49;0.00;83.20
83841;DHT22;73868;52.172;10.668;2023-12-04T14:23:15;0.00;83.50
83841;DHT22;73868;52.172;10.668;2023-12-04T14:25:41;0.00;83.00
83841;DHT22;73868;52.172;10.668;2023-12-04T14:28:07;-3276.70;82.90
83841;DHT22;73868;52.172;10.668;2023-12-04T14:30:32;-3276.70;82.80
83841;DHT22;73868;52.172;10.668;2023-12-04T14:32:58;0.00;82.90
83841;DHT22;73868;52.172;10.668;2023-12-04T14:35:24;-3276.70;83.20
83841;DHT22;73868;52.172;10.668;2023-12-04T14:37:49;-3276.70;82.60
83841;DHT22;73868;52.172;10.668;2023-12-04T14:40:15;-3276.60;82.70
83841;DHT22;73868;52.172;10.668;2023-12-04T14:42:42;-3276.50;83.10
83841;DHT22;73868;52.172;10.668;2023-12-04T14:45:08;-3276.60;83.50
83841;DHT22;73868;52.172;10.668;2023-12-04T14:47:34;-3276.50;83.60
83841;DHT22;73868;52.172;10.668;2023-12-04T14:50:02;-3276.60;83.20
83841;DHT22;73868;52.172;10.668;2023-12-04T14:55:05;-3276.50;83.50
83841;DHT22;73868;52.172;10.668;2023-12-04T14:57:33;-3276.50;83.40
83841;DHT22;73868;52.172;10.668;2023-12-04T15:00:05;-3276.50;83.50